sensor_id;sensor_type;location;lat;lon;timestamp;pressure;altitude;pressure_sealevel;temperature;humidity
2397;BME280;1209;48.410;9.054;2023-03-04T00:01:29;96697.38;;;1.12;100.00
2397;BME280;1209;48.410;9.054;2023-03-04T00:03:54;96700.59;;;1.03;100.00
2397;BME280;1209;48.410;9.054;2023-03-04T00:06:19;96704.06;;;1.02;100.00
2397;BME280;1209;48.410;9.054;2023-03-04T00:08:45;96707.97;;;1.07;100.00
2397;BME280;1209;48.410;9.054;2023-03-04T00:11:10;96707.75;;;1.10;100.00
2397;BME280;1209;48.410;9.054;2023-03-04T00:13:35;96704.41;;;0.97;100.00
2397;BME280;1209;48.410;9.054;2023-03-04T00:16:01;96707.06;;;0.96;100.00
2397;BME280;1209;48.410;9.054;2023-03-04T00:18:26;96699.97;;;0.86;100.00
2397;BME280;1209;48.410;9.054;2023-03-04T00:20:51;96704.78;;;0.91;100.00
2397;BME280;1209;48.410;9.054;2023-03-04T00:23:17;96707.06;;;0.96;100.00
2397;BME280;1209;48.410;9.054;2023-03-04T00:25:42;96708.19;;;0.79;100.00
2397;BME280;1209;48.410;9.054;2023-03-04T00:28:07;96703.66;;;0.82;100.00
2397;BME280;1209;48.410;9.054;2023-03-04T00:30:33;96697.59;;;0.83;100.00
2397;BME280;1209;48.410;9.054;2023-03-04T00:32:58;96695.75;;;0.85;100.00
2397;BME280;1209;48.410;9.054;2023-03-04T00:35:23;96700.47;;;0.91;100.00
2397;BME280;1209;48.410;9.054;2023-03-04T00:37:49;96693.28;;;0.84;100.00
2397;BME280;1209;48.410;9.054;2023-03-04T00:40:14;96697.09;;;0.78;100.00
2397;BME280;1209;48.410;9.054;2023-03-04T00:42:39;96692.16;;;0.62;100.00
2397;BME280;1209;48.410;9.054;2023-03-04T00:45:05;96694.72;;;0.75;100.00
2397;BME280;1209;48.410;9.054;2023-03-04T00:47:31;96691.66;;;0.70;100.00
2397;BME280;1209;48.410;9.054;2023-03-04T00:49:56;96692.88;;;0.65;100.00
2397;BME280;1209;48.410;9.054;2023-03-04T00:52:21;96696.28;;;0.65;100.00
2397;BME280;1209;48.410;9.054;2023-03-04T00:54:47;96694.22;;;0.57;100.00
2397;BME280;1209;48.410;9.054;2023-03-04T00:57:12;96690.22;;;0.53;100.00
2397;BME280;1209;48.410;9.054;2023-03-04T00:59:37;96688.34;;;0.43;100.00
2397;BME280;1209;48.410;9.054;2023-03-04T01:02:03;96691.63;;;0.45;100.00
2397;BME280;1209;48.410;9.054;2023-03-04T01:04:28;96686.59;;;0.43;100.00
2397;BME280;1209;48.410;9.054;2023-03-04T01:06:53;96680.81;;;0.02;100.00
2397;BME280;1209;48.410;9.054;2023-03-04T01:09:19;96689.75;;;0.21;100.00
2397;BME280;1209;48.410;9.054;2023-03-04T01:11:44;96693.06;;;0.36;100.00
2397;BME280;1209;48.410;9.054;2023-03-04T01:14:09;96684.84;;;0.44;100.00
2397;BME280;1209;48.410;9.054;2023-03-04T01:16:34;96687.91;;;0.36;100.00
2397;BME280;1209;48.410;9.054;2023-03-04T01:19:00;96686.28;;;0.35;100.00
2397;BME280;1209;48.410;9.054;2023-03-04T01:21:25;96678.56;;;0.22;100.00
2397;BME280;1209;48.410;9.054;2023-03-04T01:23:50;96683.19;;;0.30;100.00
2397;BME280;1209;48.410;9.054;2023-03-04T01:26:16;96684.31;;;0.26;100.00
2397;BME280;1209;48.410;9.054;2023-03-04T01:28:41;96672.41;;;0.25;100.00
2397;BME280;1209;48.410;9.054;2023-03-04T01:31:06;96675.19;;;0.22;100.00
2397;BME280;1209;48.410;9.054;2023-03-04T01:33:32;96672.09;;;0.29;100.00
2397;BME280;1209;48.410;9.054;2023-03-04T01:35:57;96665.84;;;0.21;100.00
2397;BME280;1209;48.410;9.054;2023-03-04T01:38:23;96669.84;;;0.25;100.00
2397;BME280;1209;48.410;9.054;2023-03-04T01:40:49;96664.38;;;0.17;100.00
2397;BME280;1209;48.410;9.054;2023-03-04T01:43:34;96662.53;;;0.19;100.00
2397;BME280;1209;48.410;9.054;2023-03-04T01:46:00;96666.56;;;0.23;100.00
2397;BME280;1209;48.410;9.054;2023-03-04T01:48:32;96664.69;;;0.25;100.00
2397;BME280;1209;48.410;9.054;2023-03-04T01:51:01;96657.63;;;0.16;100.00
2397;BME280;1209;48.410;9.054;2023-03-04T01:53:27;96654.38;;;-0.01;100.00
2397;BME280;1209;48.410;9.054;2023-03-04T01:55:56;96653.50;;;0.13;100.00
2397;BME280;1209;48.410;9.054;2023-03-04T01:58:28;96658.75;;;0.24;100.00
2397;BME280;1209;48.410;9.054;2023-03-04T02:00:54;96661.31;;;0.12;100.00
2397;BME280;1209;48.410;9.054;2023-03-04T02:03:20;96658.13;;;0.08;100.00
2397;BME280;1209;48.410;9.054;2023-03-04T02:05:48;96652.78;;;0.11;100.00
2397;BME280;1209;48.410;9.054;2023-03-04T02:08:15;96652.81;;;-0.16;100.00
2397;BME280;1209;48.410;9.054;2023-03-04T02:10:42;96654.34;;;-0.26;100.00
2397;BME280;1209;48.410;9.054;2023-03-04T02:13:08;96648.59;;;-0.17;100.00
2397;BME280;1209;48.410;9.054;2023-03-04T02:15:33;96641.31;;;-0.23;100.00
2397;BME280;1209;48.410;9.054;2023-03-04T02:17:59;96651.69;;;-0.12;100.00
2397;BME280;1209;48.410;9.054;2023-03-04T02:20:29;96646.47;;;-0.10;100.00
2397;BME280;1209;48.410;9.054;2023-03-04T02:23:13;96649.00;;;-0.23;100.00
2397;BME280;1209;48.410;9.054;2023-03-04T02:25:49;96650.00;;;-0.38;100.00
2397;BME280;1209;48.410;9.054;2023-03-04T02:28:17;96647.44;;;-0.38;100.00
2397;BME280;1209;48.410;9.054;2023-03-04T02:30:42;96646.13;;;-0.31;100.00
2397;BME280;1209;48.410;9.054;2023-03-04T02:33:16;96643.22;;;-0.39;100.00
2397;BME280;1209;48.410;9.054;2023-03-04T02:35:42;96649.81;;;-0.35;100.00
2397;BME280;1209;48.410;9.054;2023-03-04T02:38:09;96646.41;;;-0.36;100.00
2397;BME280;1209;48.410;9.054;2023-03-04T02:40:35;96653.69;;;-0.42;100.00
2397;BME280;1209;48.410;9.054;2023-03-04T02:43:01;96646.72;;;-0.54;100.00
2397;BME280;1209;48.410;9.054;2023-03-04T02:48:05;96647.75;;;-0.30;100.00
2397;BME280;1209;48.410;9.054;2023-03-04T02:50:35;96648.69;;;-0.31;100.00
2397;BME280;1209;48.410;9.054;2023-03-04T02:53:02;96643.13;;;-0.38;100.00
2397;BME280;1209;48.410;9.054;2023-03-04T02:55:27;96657.72;;;-0.25;100.00
2397;BME280;1209;48.410;9.054;2023-03-04T02:57:53;96653.00;;;-0.32;100.00
2397;BME280;1209;48.410;9.054;2023-03-04T03:00:19;96649.56;;;-0.45;100.00
2397;BME280;1209;48.410;9.054;2023-03-04T03:02:44;96653.81;;;-0.31;100.00
2397;BME280;1209;48.410;9.054;2023-03-04T03:05:10;96650.53;;;-0.33;100.00
2397;BME280;1209;48.410;9.054;2023-03-04T03:07:35;96653.50;;;-0.26;100.00
2397;BME280;1209;48.410;9.054;2023-03-04T03:10:02;96651.97;;;-0.29;100.00
2397;BME280;1209;48.410;9.054;2023-03-04T03:12:28;96646.94;;;-0.30;100.00
2397;BME280;1209;48.410;9.054;2023-03-04T03:14:53;96651.03;;;-0.28;100.00
2397;BME280;1209;48.410;9.054;2023-03-04T03:17:18;96652.38;;;-0.35;100.00
2397;BME280;1209;48.410;9.054;2023-03-04T03:19:43;96648.97;;;-0.36;100.00
2397;BME280;1209;48.410;9.054;2023-03-04T03:22:09;96649.69;;;-0.34;100.00
2397;BME280;1209;48.410;9.054;2023-03-04T03:24:34;96652.16;;;-0.32;100.00
2397;BME280;1209;48.410;9.054;2023-03-04T03:26:59;96646.50;;;-0.37;100.00
2397;BME280;1209;48.410;9.054;2023-03-04T03:29:25;96650.63;;;-0.35;100.00
2397;BME280;1209;48.410;9.054;2023-03-04T03:31:50;96651.16;;;-0.29;100.00
2397;BME280;1209;48.410;9.054;2023-03-04T03:34:15;96648.59;;;-0.29;100.00
2397;BME280;1209;48.410;9.054;2023-03-04T03:36:40;96650.00;;;-0.38;100.00
2397;BME280;1209;48.410;9.054;2023-03-04T03:39:06;96644.34;;;-0.43;100.00
2397;BME280;1209;48.410;9.054;2023-03-04T03:41:31;96649.19;;;-0.53;100.00
2397;BME280;1209;48.410;9.054;2023-03-04T03:43:56;96656.53;;;-0.47;100.00
2397;BME280;1209;48.410;9.054;2023-03-04T03:46:22;96654.34;;;-0.53;100.00
2397;BME280;1209;48.410;9.054;2023-03-04T03:48:47;96650.28;;;-0.43;100.00
2397;BME280;1209;48.410;9.054;2023-03-04T03:51:12;96647.25;;;-0.49;100.00
2397;BME280;1209;48.410;9.054;2023-03-04T03:53:37;96651.34;;;-0.59;100.00
2397;BME280;1209;48.410;9.054;2023-03-04T03:56:03;96643.97;;;-0.51;100.00
2397;BME280;1209;48.410;9.054;2023-03-04T03:58:28;96651.19;;;-0.71;100.00
2397;BME280;1209;48.410;9.054;2023-03-04T04:00:54;96648.03;;;-0.61;100.00
2397;BME280;1209;48.410;9.054;2023-03-04T04:03:19;96646.41;;;-0.63;100.00
2397;BME280;1209;48.410;9.054;2023-03-04T04:05:45;96649.50;;;-0.57;100.00
2397;BME280;1209;48.410;9.054;2023-03-04T04:08:12;96642.00;;;-0.60;100.00
2397;BME280;1209;48.410;9.054;2023-03-04T04:10:38;96647.47;;;-0.79;100.00
2397;BME280;1209;48.410;9.054;2023-03-04T04:13:04;96643.50;;;-0.71;100.00
2397;BME280;1209;48.410;9.054;2023-03-04T04:15:29;96653.56;;;-0.68;100.00
2397;BME280;1209;48.410;9.054;2023-03-04T04:17:54;96643.31;;;-0.68;100.00
2397;BME280;1209;48.410;9.054;2023-03-04T04:20:19;96647.81;;;-0.71;100.00
2397;BME280;1209;48.410;9.054;2023-03-04T04:22:45;96650.81;;;-0.65;100.00
2397;BME280;1209;48.410;9.054;2023-03-04T04:25:10;96649.50;;;-0.57;100.00
2397;BME280;1209;48.410;9.054;2023-03-04T04:27:35;96652.09;;;-0.72;100.00
2397;BME280;1209;48.410;9.054;2023-03-04T04:30:01;96654.25;;;-0.78;100.00
2397;BME280;1209;48.410;9.054;2023-03-04T04:32:26;96649.75;;;-0.75;100.00
2397;BME280;1209;48.410;9.054;2023-03-04T04:34:51;96650.41;;;-0.85;100.00
2397;BME280;1209;48.410;9.054;2023-03-04T04:37:17;96653.22;;;-0.76;100.00
2397;BME280;1209;48.410;9.054;2023-03-04T04:39:42;96663.19;;;-0.71;100.00
2397;BME280;1209;48.410;9.054;2023-03-04T04:42:09;96661.25;;;-0.68;100.00
2397;BME280;1209;48.410;9.054;2023-03-04T04:44:35;96653.66;;;-0.69;100.00
2397;BME280;1209;48.410;9.054;2023-03-04T04:47:03;96655.31;;;-0.68;100.00
2397;BME280;1209;48.410;9.054;2023-03-04T04:49:28;96653.75;;;-0.71;100.00
2397;BME280;1209;48.410;9.054;2023-03-04T04:51:54;96651.97;;;-0.83;100.00
2397;BME280;1209;48.410;9.054;2023-03-04T04:54:19;96652.69;;;-0.81;100.00
2397;BME280;1209;48.410;9.054;2023-03-04T04:56:44;96643.34;;;-0.82;100.00
2397;BME280;1209;48.410;9.054;2023-03-04T04:59:09;96645.19;;;-0.98;100.00
2397;BME280;1209;48.410;9.054;2023-03-04T05:01:35;96648.31;;;-1.07;100.00
2397;BME280;1209;48.410;9.054;2023-03-04T05:04:00;96646.41;;;-1.04;100.00
2397;BME280;1209;48.410;9.054;2023-03-04T05:06:25;96642.81;;;-1.01;100.00
2397;BME280;1209;48.410;9.054;2023-03-04T05:08:51;96650.59;;;-1.03;100.00
2397;BME280;1209;48.410;9.054;2023-03-04T05:11:17;96645.28;;;-1.00;100.00
2397;BME280;1209;48.410;9.054;2023-03-04T05:13:43;96644.41;;;-1.13;100.00
2397;BME280;1209;48.410;9.054;2023-03-04T05:16:09;96643.88;;;-1.18;100.00
2397;BME280;1209;48.410;9.054;2023-03-04T05:18:34;96637.97;;;-1.06;100.00
2397;BME280;1209;48.410;9.054;2023-03-04T05:21:01;96633.16;;;-1.10;100.00
2397;BME280;1209;48.410;9.054;2023-03-04T05:23:29;96643.28;;;-1.09;100.00
2397;BME280;1209;48.410;9.054;2023-03-04T05:25:55;96637.06;;;-1.05;100.00
2397;BME280;1209;48.410;9.054;2023-03-04T05:28:20;96637.06;;;-1.05;100.00
2397;BME280;1209;48.410;9.054;2023-03-04T05:30:46;96646.06;;;-1.12;100.00
2397;BME280;1209;48.410;9.054;2023-03-04T05:33:12;96640.53;;;-1.06;100.00
2397;BME280;1209;48.410;9.054;2023-03-04T05:35:39;96643.66;;;-1.01;100.00
2397;BME280;1209;48.410;9.054;2023-03-04T05:38:07;96647.22;;;-1.03;100.00
2397;BME280;1209;48.410;9.054;2023-03-04T05:40:33;96651.06;;;-1.10;100.00
2397;BME280;1209;48.410;9.054;2023-03-04T05:42:58;96654.00;;;-1.16;100.00
2397;BME280;1209;48.410;9.054;2023-03-04T05:45:24;96648.41;;;-1.09;100.00
2397;BME280;1209;48.410;9.054;2023-03-04T05:47:50;96649.69;;;-1.02;100.00
2397;BME280;1209;48.410;9.054;2023-03-04T05:50:16;96644.38;;;-0.99;100.00
2397;BME280;1209;48.410;9.054;2023-03-04T05:52:41;96645.13;;;-1.11;100.00
2397;BME280;1209;48.410;9.054;2023-03-04T05:55:07;96644.69;;;-1.17;100.00
2397;BME280;1209;48.410;9.054;2023-03-04T05:57:32;96643.63;;;-1.42;100.00
2397;BME280;1209;48.410;9.054;2023-03-04T05:59:57;96644.50;;;-1.57;100.00
2397;BME280;1209;48.410;9.054;2023-03-04T06:02:23;96647.25;;;-1.60;100.00
2397;BME280;1209;48.410;9.054;2023-03-04T06:04:48;96657.94;;;-1.53;100.00
2397;BME280;1209;48.410;9.054;2023-03-04T06:07:13;96653.84;;;-1.56;100.00
2397;BME280;1209;48.410;9.054;2023-03-04T06:09:39;96665.16;;;-1.46;100.00
2397;BME280;1209;48.410;9.054;2023-03-04T06:12:04;96665.28;;;-1.33;100.00
2397;BME280;1209;48.410;9.054;2023-03-04T06:14:29;96670.19;;;-1.44;100.00
2397;BME280;1209;48.410;9.054;2023-03-04T06:16:55;96668.00;;;-1.50;100.00
2397;BME280;1209;48.410;9.054;2023-03-04T06:19:20;96666.28;;;-1.36;100.00
2397;BME280;1209;48.410;9.054;2023-03-04T06:21:45;96677.69;;;-1.55;100.00
2397;BME280;1209;48.410;9.054;2023-03-04T06:24:11;96671.94;;;-1.45;100.00
2397;BME280;1209;48.410;9.054;2023-03-04T06:26:36;96677.19;;;-1.32;100.00
2397;BME280;1209;48.410;9.054;2023-03-04T06:29:03;96670.03;;;-1.27;100.00
2397;BME280;1209;48.410;9.054;2023-03-04T06:31:29;96678.53;;;-1.12;100.00
2397;BME280;1209;48.410;9.054;2023-03-04T06:33:54;96686.75;;;-1.07;100.00
2397;BME280;1209;48.410;9.054;2023-03-04T06:36:20;96692.91;;;-1.10;100.00
2397;BME280;1209;48.410;9.054;2023-03-04T06:38:45;96694.91;;;-1.01;100.00
2397;BME280;1209;48.410;9.054;2023-03-04T06:41:12;96697.66;;;-1.04;100.00
2397;BME280;1209;48.410;9.054;2023-03-04T06:43:38;96695.63;;;-0.99;100.00
2397;BME280;1209;48.410;9.054;2023-03-04T06:46:05;96704.53;;;-0.90;100.00
2397;BME280;1209;48.410;9.054;2023-03-04T06:48:30;96696.44;;;-0.98;100.00
2397;BME280;1209;48.410;9.054;2023-03-04T06:50:56;96702.50;;;-0.85;100.00
2397;BME280;1209;48.410;9.054;2023-03-04T06:53:21;96702.88;;;-0.91;100.00
2397;BME280;1209;48.410;9.054;2023-03-04T06:55:47;96700.38;;;-0.78;100.00
2397;BME280;1209;48.410;9.054;2023-03-04T06:58:13;96710.72;;;-0.80;100.00
2397;BME280;1209;48.410;9.054;2023-03-04T07:00:38;96709.53;;;-0.74;100.00
2397;BME280;1209;48.410;9.054;2023-03-04T07:03:04;96717.56;;;-0.66;100.00
2397;BME280;1209;48.410;9.054;2023-03-04T07:05:29;96718.69;;;-0.70;100.00
2397;BME280;1209;48.410;9.054;2023-03-04T07:07:54;96726.28;;;-0.69;100.00
2397;BME280;1209;48.410;9.054;2023-03-04T07:10:20;96725.31;;;-0.53;100.00
2397;BME280;1209;48.410;9.054;2023-03-04T07:12:46;96721.53;;;-0.48;100.00
2397;BME280;1209;48.410;9.054;2023-03-04T07:15:11;96721.91;;;-0.40;100.00
2397;BME280;1209;48.410;9.054;2023-03-04T07:17:37;96728.50;;;-0.36;100.00
2397;BME280;1209;48.410;9.054;2023-03-04T07:20:02;96731.75;;;-0.46;100.00
2397;BME280;1209;48.410;9.054;2023-03-04T07:22:28;96727.59;;;-0.49;100.00
2397;BME280;1209;48.410;9.054;2023-03-04T07:24:53;96738.84;;;-0.78;100.00
2397;BME280;1209;48.410;9.054;2023-03-04T07:27:19;96733.69;;;-0.64;100.00
2397;BME280;1209;48.410;9.054;2023-03-04T07:29:48;96735.94;;;-0.45;100.00
2397;BME280;1209;48.410;9.054;2023-03-04T07:32:13;96740.84;;;-0.28;100.00
2397;BME280;1209;48.410;9.054;2023-03-04T07:34:38;96744.47;;;-0.18;100.00
2397;BME280;1209;48.410;9.054;2023-03-04T07:37:04;96728.50;;;-0.09;100.00
2397;BME280;1209;48.410;9.054;2023-03-04T07:39:29;96733.06;;;0.01;100.00
2397;BME280;1209;48.410;9.054;2023-03-04T07:41:55;96732.13;;;0.02;100.00
2397;BME280;1209;48.410;9.054;2023-03-04T07:44:20;96736.69;;;0.11;100.00
2397;BME280;1209;48.410;9.054;2023-03-04T07:46:45;96734.53;;;0.17;100.00
2397;BME280;1209;48.410;9.054;2023-03-04T07:49:12;96734.34;;;0.20;100.00
2397;BME280;1209;48.410;9.054;2023-03-04T07:51:38;96735.47;;;0.29;100.00
2397;BME280;1209;48.410;9.054;2023-03-04T07:54:03;96737.34;;;0.40;100.00
2397;BME280;1209;48.410;9.054;2023-03-04T07:56:31;96741.34;;;0.44;100.00
2397;BME280;1209;48.410;9.054;2023-03-04T07:58:57;96744.47;;;0.49;100.00
2397;BME280;1209;48.410;9.054;2023-03-04T08:03:50;96755.06;;;0.70;100.00
2397;BME280;1209;48.410;9.054;2023-03-04T08:06:17;96743.25;;;0.92;100.00
2397;BME280;1209;48.410;9.054;2023-03-04T08:08:44;96750.84;;;0.94;100.00
2397;BME280;1209;48.410;9.054;2023-03-04T08:11:15;96750.94;;;0.92;100.00
2397;BME280;1209;48.410;9.054;2023-03-04T08:13:41;96745.31;;;1.00;100.00
2397;BME280;1209;48.410;9.054;2023-03-04T08:16:07;96743.34;;;1.16;100.00
2397;BME280;1209;48.410;9.054;2023-03-04T08:18:33;96747.09;;;1.49;100.00
2397;BME280;1209;48.410;9.054;2023-03-04T08:20:58;96756.44;;;1.63;100.00
2397;BME280;1209;48.410;9.054;2023-03-04T08:23:24;96749.25;;;1.79;100.00
2397;BME280;1209;48.410;9.054;2023-03-04T08:25:49;96730.44;;;2.02;100.00
2397;BME280;1209;48.410;9.054;2023-03-04T08:28:16;96740.63;;;2.04;100.00
2397;BME280;1209;48.410;9.054;2023-03-04T08:30:41;96752.28;;;2.20;100.00
2397;BME280;1209;48.410;9.054;2023-03-04T08:33:08;96758.75;;;2.26;100.00
2397;BME280;1209;48.410;9.054;2023-03-04T08:35:36;96764.59;;;1.93;100.00
2397;BME280;1209;48.410;9.054;2023-03-04T08:38:02;96758.31;;;2.32;100.00
2397;BME280;1209;48.410;9.054;2023-03-04T08:40:28;96771.22;;;2.08;100.00
2397;BME280;1209;48.410;9.054;2023-03-04T08:42:55;96766.28;;;2.05;100.00
2397;BME280;1209;48.410;9.054;2023-03-04T08:45:20;96770.53;;;2.41;100.00
2397;BME280;1209;48.410;9.054;2023-03-04T08:47:46;96770.25;;;2.33;100.00
2397;BME280;1209;48.410;9.054;2023-03-04T08:50:11;96774.38;;;2.12;100.00
2397;BME280;1209;48.410;9.054;2023-03-04T08:52:36;96773.06;;;2.06;100.00
2397;BME280;1209;48.410;9.054;2023-03-04T08:55:02;96770.81;;;2.49;100.00
2397;BME280;1209;48.410;9.054;2023-03-04T08:57:28;96769.09;;;2.72;100.00
2397;BME280;1209;48.410;9.054;2023-03-04T08:59:53;96780.75;;;2.89;100.00
2397;BME280;1209;48.410;9.054;2023-03-04T09:02:19;96774.34;;;3.28;100.00
2397;BME280;1209;48.410;9.054;2023-03-04T09:04:44;96778.06;;;3.02;100.00
2397;BME280;1209;48.410;9.054;2023-03-04T09:07:09;96773.84;;;2.90;100.00
2397;BME280;1209;48.410;9.054;2023-03-04T09:09:35;96779.06;;;3.45;100.00
2397;BME280;1209;48.410;9.054;2023-03-04T09:12:00;96777.00;;;2.93;100.00
2397;BME280;1209;48.410;9.054;2023-03-04T09:14:26;96782.19;;;3.04;100.00
2397;BME280;1209;48.410;9.054;2023-03-04T09:16:51;96781.88;;;3.31;100.00
2397;BME280;1209;48.410;9.054;2023-03-04T09:19:16;96777.84;;;3.27;100.00
2397;BME280;1209;48.410;9.054;2023-03-04T09:21:42;96783.75;;;2.72;100.00
2397;BME280;1209;48.410;9.054;2023-03-04T09:24:07;96780.13;;;2.39;100.00
2397;BME280;1209;48.410;9.054;2023-03-04T09:26:32;96778.44;;;2.62;100.00
2397;BME280;1209;48.410;9.054;2023-03-04T09:29:00;96782.09;;;2.36;100.00
2397;BME280;1209;48.410;9.054;2023-03-04T09:31:26;96790.28;;;2.06;100.00
2397;BME280;1209;48.410;9.054;2023-03-04T09:33:52;96796.41;;;1.92;100.00
2397;BME280;1209;48.410;9.054;2023-03-04T09:36:18;96788.47;;;1.95;100.00
2397;BME280;1209;48.410;9.054;2023-03-04T09:38:43;96784.63;;;2.01;100.00
2397;BME280;1209;48.410;9.054;2023-03-04T09:41:14;96791.66;;;1.99;100.00
2397;BME280;1209;48.410;9.054;2023-03-04T09:43:42;96786.88;;;2.05;100.00
2397;BME280;1209;48.410;9.054;2023-03-04T09:46:13;96780.34;;;2.12;100.00
2397;BME280;1209;48.410;9.054;2023-03-04T09:48:58;96785.34;;;2.03;100.00
2397;BME280;1209;48.410;9.054;2023-03-04T09:54:26;96792.97;;;2.04;100.00
2397;BME280;1209;48.410;9.054;2023-03-04T09:59:45;96808.31;;;1.69;100.00
2397;BME280;1209;48.410;9.054;2023-03-04T10:02:21;96800.72;;;1.55;100.00
2397;BME280;1209;48.410;9.054;2023-03-04T10:04:56;96806.38;;;1.60;100.00
2397;BME280;1209;48.410;9.054;2023-03-04T10:07:28;96806.25;;;1.62;100.00
2397;BME280;1209;48.410;9.054;2023-03-04T10:12:32;96801.66;;;1.54;100.00
2397;BME280;1209;48.410;9.054;2023-03-04T10:15:04;96795.53;;;1.68;100.00
2397;BME280;1209;48.410;9.054;2023-03-04T10:17:34;96795.78;;;1.88;100.00
2397;BME280;1209;48.410;9.054;2023-03-04T10:20:30;96791.25;;;2.16;100.00
2397;BME280;1209;48.410;9.054;2023-03-04T10:22:59;96791.56;;;1.87;100.00
2397;BME280;1209;48.410;9.054;2023-03-04T10:25:33;96788.53;;;1.70;100.00
2397;BME280;1209;48.410;9.054;2023-03-04T10:28:02;96788.00;;;1.77;100.00
2397;BME280;1209;48.410;9.054;2023-03-04T10:33:13;96788.09;;;1.76;100.00
2397;BME280;1209;48.410;9.054;2023-03-04T10:35:43;96783.50;;;1.68;100.00
2397;BME280;1209;48.410;9.054;2023-03-04T10:38:11;96789.88;;;1.63;100.00
2397;BME280;1209;48.410;9.054;2023-03-04T10:40:39;96775.09;;;1.90;100.00
2397;BME280;1209;48.410;9.054;2023-03-04T10:43:05;96783.88;;;1.75;100.00
2397;BME280;1209;48.410;9.054;2023-03-04T10:45:37;96780.91;;;1.68;100.00
2397;BME280;1209;48.410;9.054;2023-03-04T10:48:03;96777.84;;;1.63;100.00
2397;BME280;1209;48.410;9.054;2023-03-04T10:50:28;96785.03;;;1.71;100.00
2397;BME280;1209;48.410;9.054;2023-03-04T10:52:56;96778.66;;;1.64;100.00
2397;BME280;1209;48.410;9.054;2023-03-04T10:55:27;96780.41;;;1.63;100.00
2397;BME280;1209;48.410;9.054;2023-03-04T10:57:56;96783.81;;;1.64;100.00
2397;BME280;1209;48.410;9.054;2023-03-04T11:00:36;96788.13;;;1.63;100.00
2397;BME280;1209;48.410;9.054;2023-03-04T11:08:41;96780.03;;;1.56;100.00
2397;BME280;1209;48.410;9.054;2023-03-04T11:11:24;96780.44;;;1.50;100.00
2397;BME280;1209;48.410;9.054;2023-03-04T11:13:52;96777.94;;;1.62;100.00
2397;BME280;1209;48.410;9.054;2023-03-04T11:16:25;96776.72;;;1.54;100.00
2397;BME280;1209;48.410;9.054;2023-03-04T11:18:53;96775.22;;;1.76;100.00
2397;BME280;1209;48.410;9.054;2023-03-04T11:21:26;96767.22;;;1.68;100.00
2397;BME280;1209;48.410;9.054;2023-03-04T11:26:30;96768.50;;;1.49;100.00
2397;BME280;1209;48.410;9.054;2023-03-04T11:29:23;96768.66;;;1.72;100.00
2397;BME280;1209;48.410;9.054;2023-03-04T11:37:05;96752.22;;;1.85;100.00
2397;BME280;1209;48.410;9.054;2023-03-04T11:39:58;96748.34;;;2.04;100.00
2397;BME280;1209;48.410;9.054;2023-03-04T11:42:30;96745.41;;;1.97;100.00
2397;BME280;1209;48.410;9.054;2023-03-04T11:44:57;96740.16;;;1.99;100.00
2397;BME280;1209;48.410;9.054;2023-03-04T11:47:40;96730.78;;;2.33;100.00
2397;BME280;1209;48.410;9.054;2023-03-04T11:50:26;96729.19;;;2.08;100.00
2397;BME280;1209;48.410;9.054;2023-03-04T11:53:19;96736.72;;;2.22;100.00
2397;BME280;1209;48.410;9.054;2023-03-04T12:01:23;96725.81;;;2.18;100.00
2397;BME280;1209;48.410;9.054;2023-03-04T12:06:56;96712.97;;;2.30;100.00
2397;BME280;1209;48.410;9.054;2023-03-04T12:12:26;96719.44;;;2.35;100.00
2397;BME280;1209;48.410;9.054;2023-03-04T12:25:56;96699.50;;;2.26;100.00
2397;BME280;1209;48.410;9.054;2023-03-04T12:28:43;96701.34;;;2.24;100.00
2397;BME280;1209;48.410;9.054;2023-03-04T12:33:58;96685.63;;;2.40;100.00
2397;BME280;1209;48.410;9.054;2023-03-04T12:39:29;96678.72;;;2.40;100.00
2397;BME280;1209;48.410;9.054;2023-03-04T12:44:57;96673.03;;;2.35;100.00
2397;BME280;1209;48.410;9.054;2023-03-04T12:55:46;96667.72;;;3.16;100.00
2397;BME280;1209;48.410;9.054;2023-03-04T12:58:20;96663.88;;;2.89;100.00
2397;BME280;1209;48.410;9.054;2023-03-04T13:00:54;96664.91;;;2.75;100.00
2397;BME280;1209;48.410;9.054;2023-03-04T13:14:21;96650.00;;;3.34;100.00
2397;BME280;1209;48.410;9.054;2023-03-04T13:16:52;96651.06;;;3.75;100.00
2397;BME280;1209;48.410;9.054;2023-03-04T13:24:53;96645.47;;;3.59;100.00
2397;BME280;1209;48.410;9.054;2023-03-04T13:27:44;96647.41;;;4.09;100.00
2397;BME280;1209;48.410;9.054;2023-03-04T13:32:57;96636.38;;;4.07;100.00
2397;BME280;1209;48.410;9.054;2023-03-04T13:38:22;96637.28;;;4.38;100.00
2397;BME280;1209;48.410;9.054;2023-03-04T13:43:37;96642.53;;;4.58;100.00
2397;BME280;1209;48.410;9.054;2023-03-04T13:51:25;96631.69;;;4.01;100.00
2397;BME280;1209;48.410;9.054;2023-03-04T13:53:55;96624.97;;;4.31;100.00
2397;BME280;1209;48.410;9.054;2023-03-04T13:56:36;96629.19;;;4.11;100.00
2397;BME280;1209;48.410;9.054;2023-03-04T14:01:34;96635.38;;;4.20;100.00
2397;BME280;1209;48.410;9.054;2023-03-04T14:04:09;96636.00;;;4.54;100.00
2397;BME280;1209;48.410;9.054;2023-03-04T14:06:40;96631.75;;;4.53;100.00
2397;BME280;1209;48.410;9.054;2023-03-04T14:09:15;96629.56;;;4.48;100.00
2397;BME280;1209;48.410;9.054;2023-03-04T14:11:42;96629.00;;;4.24;100.00
2397;BME280;1209;48.410;9.054;2023-03-04T14:14:35;96625.66;;;4.12;100.00
2397;BME280;1209;48.410;9.054;2023-03-04T14:17:05;96628.44;;;4.41;100.00
2397;BME280;1209;48.410;9.054;2023-03-04T14:19:51;96611.94;;;4.63;100.00
2397;BME280;1209;48.410;9.054;2023-03-04T14:22:37;96613.31;;;4.67;100.00
2397;BME280;1209;48.410;9.054;2023-03-04T14:25:22;96611.50;;;4.58;100.00
2397;BME280;1209;48.410;9.054;2023-03-04T14:27:47;96606.75;;;4.84;100.00
2397;BME280;1209;48.410;9.054;2023-03-04T14:32:44;96596.91;;;4.47;100.00
2397;BME280;1209;48.410;9.054;2023-03-04T14:35:21;96605.59;;;4.46;100.00
2397;BME280;1209;48.410;9.054;2023-03-04T14:37:55;96599.97;;;4.62;100.00
2397;BME280;1209;48.410;9.054;2023-03-04T14:40:25;96590.59;;;5.01;100.00
2397;BME280;1209;48.410;9.054;2023-03-04T14:43:40;96584.59;;;5.00;100.00
2397;BME280;1209;48.410;9.054;2023-03-04T14:45:41;96581.53;;;4.76;100.00
2397;BME280;1209;48.410;9.054;2023-03-04T14:48:07;96585.53;;;4.59;100.00
2397;BME280;1209;48.410;9.054;2023-03-04T14:50:33;96579.81;;;4.96;100.00
2397;BME280;1209;48.410;9.054;2023-03-04T14:55:34;96573.84;;;5.15;100.00
2397;BME280;1209;48.410;9.054;2023-03-04T15:00:37;96584.28;;;4.84;100.00
2397;BME280;1209;48.410;9.054;2023-03-04T15:03:25;96582.78;;;4.82;100.00
2397;BME280;1209;48.410;9.054;2023-03-04T15:05:52;96568.63;;;4.95;100.00
2397;BME280;1209;48.410;9.054;2023-03-04T15:08:23;96570.25;;;4.87;100.00
2397;BME280;1209;48.410;9.054;2023-03-04T15:10:57;96568.38;;;5.08;100.00